Time;durP1;ratioP1;P1;durP2;ratioP2;P2;SDS_P1;SDS_P2;PMS_P1;PMS_P2;Temp;Humidity;BMP_temperature;BMP_pressure;BME280_temperature;BME280_humidity;BME280_pressure;Samples;Min_cycle;Max_cycle;Signal;HPM_P1;HPM_P2
2023/07/09 00:00:48;;;;;;;10.75;8.23;;;14.00;99.90;;;;;;5032635;28;20022;-78
2023/07/09 00:03:14;;;;;;;10.63;8.88;;;14.00;99.90;;;;;;5028192;28;20022;-78
2023/07/09 00:05:41;;;;;;;11.45;9.30;;;14.00;99.90;;;;;;5028135;28;20390;-77
2023/07/09 00:08:31;;;;;;;10.90;8.43;;;13.90;99.90;;;;;;5028200;28;20029;-77
2023/07/09 00:10:57;;;;;;;9.32;8.27;;;13.90;99.90;;;;;;5030319;28;20044;-77
2023/07/09 00:13:24;;;;;;;11.60;9.00;;;13.80;99.90;;;;;;5031561;28;20030;-77
2023/07/09 00:15:50;;;;;;;10.35;9.23;;;13.80;99.90;;;;;;5032720;28;20515;-77
2023/07/09 00:18:16;;;;;;;12.15;9.13;;;13.70;99.90;;;;;;5032610;28;20166;-78
2023/07/09 00:20:43;;;;;;;9.43;8.43;;;13.60;99.90;;;;;;5031212;28;20026;-77
2023/07/09 00:23:13;;;;;;;10.65;9.65;;;13.60;99.90;;;;;;5031466;28;20032;-77
2023/07/09 00:25:48;;;;;;;12.43;9.45;;;13.50;99.90;;;;;;5032791;28;20049;-78
2023/07/09 00:28:17;;;;;;;9.02;8.05;;;13.50;99.90;;;;;;5032626;28;20028;-78
2023/07/09 00:30:47;;;;;;;10.05;9.05;;;13.50;99.90;;;;;;5031223;28;20025;-78
2023/07/09 00:33:19;;;;;;;9.80;8.35;;;13.50;99.90;;;;;;5031277;28;20053;-78
2023/07/09 00:35:48;;;;;;;9.80;8.73;;;13.50;99.90;;;;;;5031172;28;20030;-77
2023/07/09 00:38:22;;;;;;;9.50;8.55;;;13.60;99.90;;;;;;5032357;28;20022;-78
2023/07/09 00:41:02;;;;;;;8.43;7.63;;;13.50;99.90;;;;;;5032116;28;20052;-77
2023/07/09 00:43:32;;;;;;;10.57;7.95;;;13.50;99.90;;;;;;5031071;28;20052;-77
2023/07/09 00:46:20;;;;;;;10.48;8.50;;;13.50;99.90;;;;;;5030894;28;20386;-78
2023/07/09 00:48:57;;;;;;;8.80;7.65;;;13.50;99.90;;;;;;5032277;28;20033;-77
2023/07/09 00:51:24;;;;;;;7.63;6.93;;;13.50;99.90;;;;;;5031282;28;20025;-77
2023/07/09 00:53:55;;;;;;;7.60;6.85;;;13.50;99.90;;;;;;5030878;28;20082;-78
2023/07/09 00:56:32;;;;;;;9.38;6.15;;;13.50;99.90;;;;;;5030907;28;20019;-77
2023/07/09 00:59:04;;;;;;;9.15;7.15;;;13.50;99.90;;;;;;5030788;28;20013;-77
2023/07/09 01:01:30;;;;;;;9.25;7.85;;;13.50;99.90;;;;;;5032016;28;20036;-77
2023/07/09 01:03:59;;;;;;;8.30;7.40;;;13.40;99.90;;;;;;5031942;28;20029;-77
2023/07/09 01:06:43;;;;;;;7.82;7.03;;;13.30;99.90;;;;;;5031959;28;20045;-77
2023/07/09 01:09:08;;;;;;;8.27;7.10;;;13.30;99.90;;;;;;5030730;28;20021;-77
2023/07/09 01:11:34;;;;;;;7.68;6.75;;;13.30;99.90;;;;;;5030626;28;20510;-78
2023/07/09 01:14:03;;;;;;;8.50;7.70;;;13.20;99.90;;;;;;5042965;28;20037;-78
2023/07/09 01:16:32;;;;;;;7.82;7.10;;;13.20;99.90;;;;;;5051711;28;20050;-77
2023/07/09 01:18:58;;;;;;;9.23;8.20;;;13.10;99.90;;;;;;5051672;28;20017;-77
2023/07/09 01:21:23;;;;;;;8.07;7.28;;;13.10;99.90;;;;;;5049831;28;20021;-77
2023/07/09 01:23:51;;;;;;;7.38;6.68;;;13.00;99.90;;;;;;5051610;28;20013;-77
2023/07/09 01:26:26;;;;;;;6.90;6.30;;;13.00;99.90;;;;;;5051515;28;20044;-77
2023/07/09 01:28:53;;;;;;;8.02;6.60;;;13.00;99.90;;;;;;5050295;28;20017;-78
2023/07/09 01:31:20;;;;;;;8.27;7.38;;;12.90;99.90;;;;;;5051430;28;20028;-78
2023/07/09 01:33:46;;;;;;;7.82;6.93;;;12.90;99.90;;;;;;5050142;28;20037;-78
2023/07/09 01:36:15;;;;;;;8.60;7.18;;;12.90;99.90;;;;;;5050044;28;20025;-77
2023/07/09 01:38:42;;;;;;;7.90;7.05;;;12.80;99.90;;;;;;5050082;28;20021;-78
2023/07/09 01:41:08;;;;;;;7.30;6.60;;;12.80;99.90;;;;;;5051092;28;20053;-77
2023/07/09 01:43:34;;;;;;;6.90;6.30;;;12.80;99.90;;;;;;5049018;28;20035;-77
2023/07/09 01:46:00;;;;;;;7.18;5.78;;;12.70;99.90;;;;;;5051241;28;20520;-77
2023/07/09 01:48:27;;;;;;;7.03;6.43;;;12.70;99.90;;;;;;5051135;28;20044;-78
2023/07/09 01:50:53;;;;;;;7.15;6.20;;;12.70;99.90;;;;;;5049894;28;20025;-77
2023/07/09 01:53:23;;;;;;;6.80;6.20;;;12.60;99.90;;;;;;5051227;28;20482;-78
2023/07/09 01:55:50;;;;;;;7.43;6.35;;;12.60;99.90;;;;;;5051122;28;20025;-77
2023/07/09 01:58:16;;;;;;;7.47;6.78;;;12.60;99.90;;;;;;5049864;28;20044;-78
2023/07/09 02:00:41;;;;;;;7.20;6.47;;;12.60;99.90;;;;;;5050995;28;20021;-77
2023/07/09 02:03:08;;;;;;;6.63;5.50;;;12.60;99.90;;;;;;5051077;28;20021;-78
2023/07/09 02:05:36;;;;;;;6.90;6.40;;;12.50;99.90;;;;;;5049689;28;20523;-76
2023/07/09 02:08:02;;;;;;;10.27;6.63;;;12.60;99.90;;;;;;5051005;28;20057;-77
2023/07/09 02:10:27;;;;;;;7.75;6.53;;;12.50;99.90;;;;;;5050824;28;20040;-77
2023/07/09 02:12:53;;;;;;;8.40;6.80;;;12.50;99.90;;;;;;5049560;28;20024;-78
2023/07/09 02:15:19;;;;;;;7.68;6.85;;;12.50;99.90;;;;;;5049668;28;20021;-77
2023/07/09 02:17:45;;;;;;;8.07;6.70;;;12.50;99.90;;;;;;5050847;28;20053;-77
2023/07/09 02:20:11;;;;;;;7.75;5.88;;;12.50;99.90;;;;;;5050791;28;20025;-78
2023/07/09 02:22:38;;;;;;;7.18;6.47;;;12.50;99.90;;;;;;5049390;28;20028;-77
2023/07/09 02:25:08;;;;;;;6.95;6.25;;;12.50;99.90;;;;;;5050637;28;20037;-77
2023/07/09 02:27:35;;;;;;;7.60;6.40;;;12.40;99.90;;;;;;5049335;28;20017;-78
2023/07/09 02:30:02;;;;;;;7.72;6.57;;;12.40;99.90;;;;;;5050838;28;20073;-76
2023/07/09 02:32:28;;;;;;;6.82;6.18;;;12.30;99.90;;;;;;5050457;28;20025;-77
2023/07/09 02:34:55;;;;;;;7.07;6.47;;;12.30;99.90;;;;;;5049709;28;20036;-77
2023/07/09 02:37:22;;;;;;;6.97;6.30;;;12.20;99.90;;;;;;5050601;28;20031;-79
2023/07/09 02:39:48;;;;;;;7.47;6.57;;;12.20;99.90;;;;;;5049305;28;20032;-78
2023/07/09 02:42:16;;;;;;;8.18;7.07;;;12.20;99.90;;;;;;5049102;28;20140;-77
2023/07/09 02:44:43;;;;;;;7.88;6.93;;;12.20;99.90;;;;;;5050466;28;20505;-77
2023/07/09 02:47:09;;;;;;;7.15;6.45;;;12.20;99.90;;;;;;5050347;28;20029;-78
2023/07/09 02:49:35;;;;;;;7.30;6.32;;;12.20;99.90;;;;;;5050474;28;20032;-77
2023/07/09 02:52:01;;;;;;;7.68;6.47;;;12.20;99.90;;;;;;5050565;28;20038;-76
2023/07/09 02:54:26;;;;;;;8.07;5.95;;;12.20;99.90;;;;;;5050176;28;20037;-78
2023/07/09 02:56:52;;;;;;;7.82;6.97;;;12.30;99.90;;;;;;5050182;28;20017;-77
2023/07/09 02:59:18;;;;;;;7.80;7.00;;;12.30;99.90;;;;;;5049015;28;20112;-78
2023/07/09 03:01:44;;;;;;;8.93;6.70;;;12.30;99.90;;;;;;5050184;28;20166;-78
2023/07/09 03:04:09;;;;;;;15.13;7.25;;;12.30;99.90;;;;;;5050329;28;20052;-77
2023/07/09 03:06:36;;;;;;;10.40;6.55;;;12.30;99.90;;;;;;5050077;28;20370;-77
2023/07/09 03:09:03;;;;;;;8.68;6.43;;;12.30;99.90;;;;;;5048897;28;20022;-77
2023/07/09 03:11:31;;;;;;;6.45;5.85;;;12.30;99.90;;;;;;5048761;28;20037;-76
2023/07/09 03:13:58;;;;;;;6.43;5.82;;;12.30;99.90;;;;;;5049894;28;20053;-76
2023/07/09 03:16:23;;;;;;;6.03;5.47;;;12.20;99.90;;;;;;5049932;28;20153;-79
2023/07/09 03:18:49;;;;;;;5.68;5.13;;;12.20;99.90;;;;;;5048692;28;20478;-77
2023/07/09 03:21:14;;;;;;;7.72;6.10;;;12.20;99.90;;;;;;5049891;28;20049;-76
2023/07/09 03:23:41;;;;;;;6.60;6.00;;;12.20;99.90;;;;;;5049897;28;20386;-76
2023/07/09 03:26:07;;;;;;;6.07;5.57;;;12.20;99.90;;;;;;5048520;28;20017;-78
2023/07/09 03:28:33;;;;;;;6.10;5.47;;;12.30;99.90;;;;;;5048625;28;20054;-77
2023/07/09 03:30:59;;;;;;;6.22;5.63;;;12.50;99.90;;;;;;5048362;28;20052;-77
2023/07/09 03:33:24;;;;;;;6.32;5.72;;;12.50;99.90;;;;;;5048569;28;20494;-78
2023/07/09 03:35:51;;;;;;;6.22;5.72;;;12.70;99.90;;;;;;5049762;28;20055;-77
2023/07/09 03:38:17;;;;;;;5.90;5.22;;;12.80;99.90;;;;;;5049766;28;20149;-79
2023/07/09 03:40:43;;;;;;;5.82;5.32;;;13.00;99.90;;;;;;5048142;28;20061;-77
2023/07/09 03:43:10;;;;;;;5.22;4.72;;;13.30;99.90;;;;;;5048466;28;20025;-78
2023/07/09 03:45:38;;;;;;;6.13;5.47;;;13.40;99.90;;;;;;5051540;28;20025;-77
2023/07/09 03:48:05;;;;;;;6.07;4.90;;;13.60;99.90;;;;;;5053076;28;20096;-77
2023/07/09 03:50:31;;;;;;;6.28;5.68;;;13.80;99.90;;;;;;5053058;28;20043;-79
2023/07/09 03:52:56;;;;;;;6.40;5.80;;;14.00;99.90;;;;;;5051794;28;20029;-79
2023/07/09 03:55:26;;;;;;;7.80;5.63;;;14.20;99.90;;;;;;5051827;28;20116;-78
2023/07/09 03:57:55;;;;;;;6.90;5.43;;;14.30;99.90;;;;;;5051679;28;20021;-77
2023/07/09 04:00:21;;;;;;;6.43;4.97;;;14.50;99.90;;;;;;5052963;28;20043;-77
2023/07/09 04:02:47;;;;;;;5.93;5.43;;;14.60;99.90;;;;;;5052817;28;20025;-77
2023/07/09 04:05:14;;;;;;;6.55;5.82;;;14.80;99.90;;;;;;5052866;28;20037;-77
2023/07/09 04:07:39;;;;;;;5.35;4.95;;;15.10;99.90;;;;;;5051456;28;20025;-77
2023/07/09 04:10:06;;;;;;;6.88;5.80;;;15.30;99.90;;;;;;5051479;28;20496;-77
2023/07/09 04:12:31;;;;;;;9.73;7.45;;;15.50;99.90;;;;;;5051417;28;20423;-79
2023/07/09 04:14:57;;;;;;;10.68;5.93;;;15.70;99.90;;;;;;5051440;28;20033;-79
2023/07/09 04:17:23;;;;;;;7.57;6.20;;;15.80;99.90;;;;;;5052715;28;20553;-78
2023/07/09 04:19:50;;;;;;;9.75;5.43;;;15.90;98.00;;;;;;5052563;28;20078;-77
2023/07/09 04:22:15;;;;;;;5.90;5.25;;;16.20;97.00;;;;;;5052635;28;20021;-79
2023/07/09 04:24:41;;;;;;;7.60;7.00;;;16.20;97.00;;;;;;5051433;28;20069;-79
2023/07/09 04:27:07;;;;;;;6.72;5.85;;;16.30;98.60;;;;;;5032793;28;20501;-77
2023/07/09 04:29:38;;;;;;;8.43;6.22;;;16.30;99.00;;;;;;5031270;28;20120;-77
2023/07/09 04:32:08;;;;;;;6.57;5.97;;;16.50;99.90;;;;;;5031254;28;20062;-79
2023/07/09 04:34:33;;;;;;;8.32;6.32;;;16.50;99.30;;;;;;5031093;28;20082;-79
2023/07/09 04:36:59;;;;;;;9.27;6.03;;;16.70;96.50;;;;;;5032362;28;20417;-79
2023/07/09 04:39:25;;;;;;;7.63;6.45;;;16.80;95.60;;;;;;5031123;28;20021;-79
2023/07/09 04:41:50;;;;;;;7.47;6.47;;;17.00;95.20;;;;;;5030957;28;20133;-79
2023/07/09 04:44:16;;;;;;;6.35;5.75;;;17.10;94.80;;;;;;5031017;28;20022;-77
2023/07/09 04:46:42;;;;;;;9.88;6.60;;;17.20;94.10;;;;;;5031010;28;20025;-78
2023/07/09 04:49:08;;;;;;;7.57;6.88;;;17.30;95.90;;;;;;5030998;28;20022;-77
2023/07/09 04:51:33;;;;;;;9.60;6.28;;;17.30;99.90;;;;;;5032157;28;20020;-77
2023/07/09 04:54:03;;;;;;;7.15;6.13;;;17.40;99.90;;;;;;5030938;28;20022;-77
2023/07/09 04:56:29;;;;;;;8.63;6.32;;;17.60;99.30;;;;;;5031242;28;20010;-78
2023/07/09 04:58:55;;;;;;;8.60;6.30;;;17.80;97.30;;;;;;5032100;28;20025;-77
2023/07/09 05:01:21;;;;;;;9.85;6.78;;;18.00;98.40;;;;;;5030785;28;20053;-78
2023/07/09 05:03:46;;;;;;;11.80;7.65;;;18.10;96.60;;;;;;5032036;28;20471;-77
2023/07/09 05:06:13;;;;;;;12.82;7.97;;;18.20;96.00;;;;;;5030782;28;20427;-77
2023/07/09 05:08:38;;;;;;;12.70;8.10;;;18.30;90.00;;;;;;5030837;28;20424;-77
2023/07/09 05:11:04;;;;;;;11.80;8.13;;;18.50;95.80;;;;;;5045576;28;20039;-78
2023/07/09 05:13:30;;;;;;;10.60;8.27;;;18.60;98.40;;;;;;5049930;28;20044;-78
2023/07/09 05:15:55;;;;;;;17.95;9.73;;;18.60;95.10;;;;;;5051757;28;20029;-77
2023/07/09 05:18:21;;;;;;;16.42;9.63;;;18.70;90.90;;;;;;5050604;28;20025;-77
2023/07/09 05:20:47;;;;;;;12.65;9.55;;;18.70;84.80;;;;;;5050416;28;20036;-77
2023/07/09 05:23:13;;;;;;;14.82;10.10;;;18.80;80.80;;;;;;5051691;28;20431;-77
2023/07/09 05:25:38;;;;;;;14.63;9.88;;;18.80;80.30;;;;;;5051509;28;20090;-78
2023/07/09 05:28:05;;;;;;;20.25;10.60;;;18.90;82.60;;;;;;5050364;28;20025;-77
2023/07/09 05:30:31;;;;;;;18.17;10.07;;;19.10;83.30;;;;;;5051543;28;20025;-78
2023/07/09 05:32:57;;;;;;;13.93;10.07;;;19.20;84.60;;;;;;5051348;28;20017;-78
2023/07/09 05:35:27;;;;;;;15.40;9.45;;;19.30;84.00;;;;;;5050297;28;20509;-78
2023/07/09 05:37:56;;;;;;;12.63;9.70;;;19.40;83.90;;;;;;5051340;28;20437;-78
2023/07/09 05:40:22;;;;;;;16.38;10.13;;;19.50;84.70;;;;;;5051217;28;20478;-77
2023/07/09 05:42:48;;;;;;;13.50;9.63;;;19.60;85.10;;;;;;5050095;28;20025;-77
2023/07/09 05:45:14;;;;;;;12.65;9.85;;;19.70;80.80;;;;;;5051322;28;20374;-78
2023/07/09 05:47:40;;;;;;;12.10;9.02;;;19.90;79.00;;;;;;5051197;28;20022;-77
2023/07/09 05:50:06;;;;;;;13.27;9.57;;;20.00;77.00;;;;;;5051253;28;20055;-78
2023/07/09 05:52:32;;;;;;;11.23;8.73;;;20.10;76.90;;;;;;5049760;28;20036;-78
2023/07/09 05:54:59;;;;;;;11.65;8.93;;;20.20;75.50;;;;;;5051175;28;20029;-77
2023/07/09 05:57:25;;;;;;;13.15;9.30;;;20.40;74.00;;;;;;5049856;28;20050;-78
2023/07/09 05:59:51;;;;;;;14.80;9.88;;;20.50;73.40;;;;;;5051130;28;20029;-77
2023/07/09 06:02:19;;;;;;;12.25;9.63;;;20.60;73.60;;;;;;5051186;28;20029;-78
2023/07/09 06:04:45;;;;;;;12.48;10.23;;;20.70;73.10;;;;;;5049555;28;20017;-77
2023/07/09 06:07:12;;;;;;;15.10;10.35;;;20.80;73.30;;;;;;5049508;28;20025;-77
2023/07/09 06:09:37;;;;;;;16.45;10.20;;;20.90;73.20;;;;;;5050824;28;20029;-77
2023/07/09 06:12:05;;;;;;;16.88;11.07;;;21.00;72.30;;;;;;5050810;28;20039;-78
2023/07/09 06:14:31;;;;;;;16.02;10.68;;;21.20;72.70;;;;;;5050840;28;20078;-78
2023/07/09 06:16:57;;;;;;;13.73;9.30;;;21.30;71.50;;;;;;5050690;28;20025;-78
2023/07/09 06:19:23;;;;;;;13.40;11.10;;;21.40;71.20;;;;;;5050811;28;20029;-78
2023/07/09 06:21:49;;;;;;;15.05;10.63;;;21.50;71.80;;;;;;5049371;28;20078;-77
2023/07/09 06:24:14;;;;;;;13.48;10.60;;;21.60;72.00;;;;;;5050525;28;20431;-78
2023/07/09 06:26:40;;;;;;;14.32;10.43;;;21.70;71.70;;;;;;5049263;28;20509;-78
2023/07/09 06:29:06;;;;;;;14.80;10.32;;;21.80;71.20;;;;;;5050557;28;20070;-78
2023/07/09 06:31:31;;;;;;;15.82;10.25;;;21.90;70.80;;;;;;5050592;28;20074;-78
2023/07/09 06:33:57;;;;;;;16.90;10.73;;;22.10;69.50;;;;;;5050474;28;20033;-78
2023/07/09 06:36:23;;;;;;;13.52;10.13;;;22.20;70.60;;;;;;5050437;28;20023;-78
2023/07/09 06:38:48;;;;;;;19.45;11.27;;;22.30;69.50;;;;;;5050582;28;20497;-78
2023/07/09 06:41:14;;;;;;;13.38;9.57;;;22.50;67.70;;;;;;5048942;28;20037;-78
2023/07/09 06:43:40;;;;;;;13.50;10.07;;;22.60;68.10;;;;;;5049074;28;20021;-78
2023/07/09 06:46:09;;;;;;;11.57;9.05;;;22.80;68.80;;;;;;5048455;28;20062;-78
2023/07/09 06:48:35;;;;;;;12.93;10.23;;;22.80;66.80;;;;;;5039519;28;20025;-78
2023/07/09 06:51:01;;;;;;;15.32;9.68;;;23.00;67.40;;;;;;5033881;28;20029;-79
2023/07/09 06:53:28;;;;;;;14.48;9.48;;;23.20;66.70;;;;;;5029011;28;20090;-78
2023/07/09 06:55:55;;;;;;;13.23;9.35;;;23.30;67.00;;;;;;5030364;28;20030;-79
2023/07/09 06:58:24;;;;;;;13.02;9.68;;;23.40;66.70;;;;;;5030353;28;20374;-78
2023/07/09 07:00:50;;;;;;;26.23;9.70;;;23.60;66.20;;;;;;5030348;28;20026;-78
2023/07/09 07:03:16;;;;;;;11.80;8.95;;;23.70;66.40;;;;;;5029021;28;20053;-78
2023/07/09 07:05:46;;;;;;;13.85;8.95;;;23.90;66.60;;;;;;5030141;28;20022;-78
2023/07/09 07:08:15;;;;;;;13.75;10.75;;;24.00;65.30;;;;;;5030630;28;20026;-79
2023/07/09 07:10:41;;;;;;;20.00;14.52;;;24.10;65.50;;;;;;5030105;28;20029;-78
2023/07/09 07:13:06;;;;;;;20.67;14.68;;;24.30;65.30;;;;;;5028888;28;20037;-79
2023/07/09 07:15:32;;;;;;;13.48;9.15;;;24.50;64.80;;;;;;5030214;28;20034;-80
2023/07/09 07:17:57;;;;;;;11.63;8.93;;;24.50;62.90;;;;;;5032241;28;20474;-80
2023/07/09 07:20:23;;;;;;;12.32;8.13;;;24.60;63.70;;;;;;5050191;28;20028;-80
2023/07/09 07:22:49;;;;;;;14.02;8.93;;;24.80;60.70;;;;;;5053420;28;20025;-80
2023/07/09 07:25:15;;;;;;;10.23;7.65;;;24.90;61.20;;;;;;5053509;28;20018;-80
2023/07/09 07:27:41;;;;;;;10.98;7.63;;;25.10;62.00;;;;;;5052157;28;20025;-79
2023/07/09 07:30:11;;;;;;;10.95;7.65;;;25.30;58.80;;;;;;5053431;28;20021;-79
2023/07/09 07:32:48;;;;;;;10.45;7.82;;;25.30;59.80;;;;;;5051917;28;20440;-80
2023/07/09 07:35:14;;;;;;;10.13;7.22;;;25.50;58.40;;;;;;5053250;28;20074;-80
2023/07/09 07:37:43;;;;;;;10.63;8.65;;;25.70;60.60;;;;;;5053202;28;20024;-80
2023/07/09 07:40:10;;;;;;;11.95;7.50;;;25.80;60.10;;;;;;5053339;28;20082;-80
2023/07/09 07:42:36;;;;;;;7.00;5.32;;;25.90;56.70;;;;;;5053143;28;20045;-79
2023/07/09 07:45:02;;;;;;;5.97;5.38;;;26.00;54.20;;;;;;5053190;28;20023;-80
2023/07/09 07:47:28;;;;;;;5.47;4.72;;;26.10;53.30;;;;;;5051689;28;20419;-80
2023/07/09 07:49:54;;;;;;;6.82;4.85;;;26.00;50.20;;;;;;5045166;28;20026;-79
2023/07/09 07:52:20;;;;;;;6.55;4.75;;;26.20;51.00;;;;;;5040430;28;20136;-80
2023/07/09 07:54:46;;;;;;;6.78;5.32;;;26.30;50.80;;;;;;5045307;28;20044;-79
2023/07/09 07:57:12;;;;;;;11.45;6.75;;;26.50;50.00;;;;;;5039424;28;20505;-80
2023/07/09 07:59:38;;;;;;;7.78;5.28;;;26.60;50.90;;;;;;5040166;28;20059;-80
2023/07/09 08:13:38;;;;;;;8.35;6.00;;;26.80;49.40;;;;;;5043531;27;20724;-77
2023/07/09 08:16:05;;;;;;;8.57;5.57;;;27.70;51.20;;;;;;5044097;28;20108;-78
2023/07/09 08:18:31;;;;;;;8.10;3.78;;;27.60;47.60;;;;;;5046727;28;20022;-79
2023/07/09 08:20:57;;;;;;;4.28;3.88;;;27.60;44.40;;;;;;5046955;28;20018;-79
2023/07/09 08:23:23;;;;;;;4.53;4.13;;;27.60;44.00;;;;;;5045643;28;20026;-79
2023/07/09 08:25:56;;;;;;;4.47;3.90;;;27.60;43.60;;;;;;5045867;28;20020;-79
2023/07/09 08:28:23;;;;;;;5.78;4.10;;;27.80;44.20;;;;;;5047092;28;20032;-79
2023/07/09 08:30:51;;;;;;;5.53;3.45;;;27.80;44.50;;;;;;5045591;28;20377;-79
2023/07/09 08:33:17;;;;;;;5.15;4.57;;;27.90;43.60;;;;;;5045717;28;20018;-79
2023/07/09 08:35:43;;;;;;;6.65;4.03;;;27.80;43.10;;;;;;5045555;28;20034;-79
2023/07/09 08:38:09;;;;;;;3.58;3.33;;;27.90;44.60;;;;;;5046619;28;20443;-77
2023/07/09 08:40:41;;;;;;;5.50;4.57;;;27.90;44.50;;;;;;5045477;28;20017;-78
2023/07/09 08:43:45;;;;;;;4.05;3.75;;;28.00;43.80;;;;;;5046735;28;20025;-78
2023/07/09 08:46:26;;;;;;;4.60;4.03;;;27.80;42.40;;;;;;4950085;28;20073;-78
2023/07/09 08:48:54;;;;;;;6.25;4.03;;;27.90;42.90;;;;;;5037426;28;20045;-77
2023/07/09 08:51:27;;;;;;;5.10;3.88;;;27.90;42.10;;;;;;5045381;28;20036;-77
2023/07/09 08:54:01;;;;;;;4.90;4.40;;;27.90;43.30;;;;;;5084670;28;20042;-80
2023/07/09 08:56:31;;;;;;;4.55;3.90;;;28.00;43.10;;;;;;5062335;28;20029;-81
2023/07/09 08:59:00;;;;;;;4.28;3.78;;;28.20;42.70;;;;;;5026011;28;20447;-81
2023/07/09 09:01:34;;;;;;;4.88;4.20;;;28.20;41.50;;;;;;5024846;28;20095;-81
2023/07/09 09:04:08;;;;;;;6.43;4.20;;;28.40;41.80;;;;;;5026141;28;20510;-81
2023/07/09 09:06:35;;;;;;;4.82;4.05;;;28.50;42.40;;;;;;5026135;28;20021;-81
2023/07/09 09:09:16;;;;;;;5.82;4.28;;;28.60;43.20;;;;;;5029901;28;20029;-80
2023/07/09 09:12:15;;;;;;;4.97;4.03;;;28.40;41.50;;;;;;5036194;28;20498;-80
2023/07/09 09:14:44;;;;;;;4.95;3.58;;;28.30;40.20;;;;;;5030810;28;20029;-79
2023/07/09 09:17:19;;;;;;;3.80;3.50;;;28.30;40.20;;;;;;5032895;28;20017;-80
2023/07/09 09:19:46;;;;;;;6.25;4.35;;;28.50;41.50;;;;;;5033229;28;20055;-78
2023/07/09 09:22:16;;;;;;;4.05;3.65;;;28.50;39.90;;;;;;5032385;28;20048;-79
2023/07/09 09:24:51;;;;;;;5.50;4.18;;;28.60;39.60;;;;;;5032769;28;20025;-80
2023/07/09 09:27:16;;;;;;;7.22;4.57;;;28.90;39.60;;;;;;5032790;28;20029;-79
2023/07/09 09:29:42;;;;;;;4.15;3.85;;;29.10;39.80;;;;;;5032575;28;20025;-79
2023/07/09 09:32:27;;;;;;;5.82;3.55;;;28.90;38.20;;;;;;5032320;28;20051;-79
2023/07/09 09:34:54;;;;;;;3.70;3.33;;;28.50;38.90;;;;;;5031400;28;20424;-79
2023/07/09 09:37:31;;;;;;;4.30;3.90;;;28.30;38.80;;;;;;5031330;28;20124;-81
2023/07/09 09:39:58;;;;;;;3.88;3.33;;;28.50;37.60;;;;;;5031556;28;20565;-79
2023/07/09 09:42:25;;;;;;;4.07;3.75;;;28.80;38.70;;;;;;5031092;28;20029;-80
2023/07/09 09:44:54;;;;;;;4.22;3.53;;;28.70;38.40;;;;;;5032576;28;20029;-79
2023/07/09 09:47:19;;;;;;;4.75;4.07;;;28.60;39.00;;;;;;5031336;28;20021;-79
2023/07/09 09:49:45;;;;;;;4.60;4.10;;;28.50;36.50;;;;;;5032363;28;20024;-80
2023/07/09 09:52:14;;;;;;;3.83;3.50;;;28.60;36.10;;;;;;5030849;28;20424;-80
2023/07/09 09:54:44;;;;;;;5.07;3.42;;;28.60;36.10;;;;;;5029563;28;20025;-80
2023/07/09 09:57:19;;;;;;;5.93;3.75;;;28.60;37.40;;;;;;5012660;28;20370;-79
2023/07/09 09:59:47;;;;;;;6.28;3.67;;;28.50;38.70;;;;;;5018826;28;20065;-80
2023/07/09 10:02:17;;;;;;;5.50;4.28;;;28.40;39.10;;;;;;5023379;28;20413;-80
2023/07/09 10:04:44;;;;;;;4.97;4.20;;;28.30;39.70;;;;;;5024822;28;20033;-79
2023/07/09 10:07:29;;;;;;;3.83;3.53;;;28.30;40.70;;;;;;5027727;28;20018;-80
2023/07/09 10:09:56;;;;;;;3.85;3.50;;;28.10;38.40;;;;;;5026469;28;20025;-79
2023/07/09 10:12:49;;;;;;;6.10;3.97;;;27.90;37.40;;;;;;5022410;28;20077;-79
2023/07/09 10:15:28;;;;;;;5.28;3.97;;;27.90;36.90;;;;;;5027920;28;20090;-78
2023/07/09 10:18:08;;;;;;;5.28;3.58;;;28.30;38.50;;;;;;5015900;28;20709;-78
2023/07/09 10:20:43;;;;;;;5.50;3.55;;;28.50;36.50;;;;;;5010898;28;20033;-78
2023/07/09 10:23:26;;;;;;;5.38;3.58;;;28.80;35.50;;;;;;5012199;28;20038;-78
2023/07/09 10:26:09;;;;;;;6.05;4.10;;;29.10;37.40;;;;;;5011170;28;20067;-79
2023/07/09 10:28:57;;;;;;;6.13;3.75;;;29.10;37.30;;;;;;5010879;28;20117;-79
2023/07/09 10:31:49;;;;;;;4.13;3.40;;;29.00;37.30;;;;;;5010876;28;20026;-78
2023/07/09 10:34:30;;;;;;;3.90;3.50;;;28.90;35.40;;;;;;5007592;28;20037;-78
2023/07/09 10:37:23;;;;;;;5.28;3.45;;;29.10;36.50;;;;;;5019718;28;20030;-78
2023/07/09 10:39:53;;;;;;;4.22;3.67;;;29.20;35.30;;;;;;5013448;28;20030;-78
2023/07/09 10:42:40;;;;;;;3.88;3.58;;;29.00;35.80;;;;;;5011538;28;20030;-77
2023/07/09 10:45:16;;;;;;;5.00;3.58;;;28.70;35.30;;;;;;5012141;28;20033;-77
2023/07/09 10:47:48;;;;;;;3.58;3.28;;;28.60;35.50;;;;;;5010617;28;20475;-78
2023/07/09 10:50:36;;;;;;;4.05;3.65;;;28.70;36.60;;;;;;5010524;28;20494;-79
2023/07/09 10:53:38;;;;;;;4.55;4.15;;;29.00;37.10;;;;;;5010409;28;20037;-79
2023/07/09 10:56:19;;;;;;;4.95;4.50;;;29.20;37.00;;;;;;5005041;28;20045;-79
2023/07/09 10:58:56;;;;;;;6.82;3.92;;;29.40;36.80;;;;;;5008452;28;20036;-78
2023/07/09 11:01:43;;;;;;;4.53;4.03;;;29.40;36.70;;;;;;5009741;28;20474;-78
2023/07/09 11:04:37;;;;;;;8.68;4.00;;;29.20;35.80;;;;;;5009228;28;20117;-78
2023/07/09 11:07:09;;;;;;;6.10;3.60;;;29.30;36.60;;;;;;5010367;28;20022;-78
2023/07/09 11:09:45;;;;;;;3.58;3.38;;;29.50;35.80;;;;;;5009433;28;20033;-79
2023/07/09 11:12:22;;;;;;;4.57;4.15;;;29.90;36.30;;;;;;5011333;28;20095;-78
2023/07/09 11:15:05;;;;;;;4.15;3.42;;;29.70;35.60;;;;;;5010328;28;20026;-79
2023/07/09 11:17:33;;;;;;;4.07;3.67;;;29.80;36.40;;;;;;5011583;28;20082;-78
2023/07/09 11:20:00;;;;;;;3.45;3.13;;;29.20;35.70;;;;;;5011567;28;20374;-78
2023/07/09 11:22:54;;;;;;;4.22;3.83;;;29.00;35.60;;;;;;5011219;28;20135;-78
2023/07/09 11:25:32;;;;;;;3.92;3.55;;;28.60;35.80;;;;;;4992855;28;20045;-78
2023/07/09 11:28:06;;;;;;;5.30;3.40;;;28.20;36.10;;;;;;5011153;28;20037;-78
2023/07/09 11:30:32;;;;;;;3.70;3.40;;;28.20;36.70;;;;;;5011345;28;20030;-78
2023/07/09 11:33:18;;;;;;;4.30;3.90;;;28.10;37.20;;;;;;5011140;28;20033;-78
2023/07/09 11:35:49;;;;;;;4.18;3.78;;;28.40;37.60;;;;;;5010540;28;20036;-78
2023/07/09 11:38:19;;;;;;;4.72;4.32;;;28.80;37.90;;;;;;5010696;28;20490;-79
2023/07/09 11:40:53;;;;;;;5.32;4.63;;;29.20;37.00;;;;;;5010716;28;20026;-80
2023/07/09 11:43:33;;;;;;;5.03;4.03;;;29.50;37.00;;;;;;5010836;28;20053;-79
2023/07/09 11:46:11;;;;;;;6.50;3.75;;;29.50;37.10;;;;;;5011182;28;20018;-79
2023/07/09 11:48:40;;;;;;;4.22;3.83;;;29.20;38.00;;;;;;5010942;28;20536;-79
2023/07/09 11:51:36;;;;;;;4.72;3.63;;;29.20;37.70;;;;;;5010855;28;20029;-81
2023/07/09 11:54:03;;;;;;;4.10;3.72;;;29.20;37.30;;;;;;5002933;28;20090;-77
2023/07/09 11:56:29;;;;;;;4.28;3.45;;;29.40;36.80;;;;;;5010813;28;20026;-77
2023/07/09 11:58:56;;;;;;;3.78;3.42;;;29.50;35.70;;;;;;5009489;28;20026;-78
2023/07/09 12:01:34;;;;;;;3.95;3.50;;;29.40;35.30;;;;;;5010563;28;20037;-78
2023/07/09 12:03:59;;;;;;;4.25;3.30;;;29.30;36.10;;;;;;5010407;28;20018;-78
2023/07/09 12:06:31;;;;;;;4.78;3.70;;;29.40;36.00;;;;;;5009168;28;20025;-78
2023/07/09 12:08:57;;;;;;;;;;;29.00;35.90;;;;;;5010657;28;20099;-78
2023/07/09 12:11:35;;;;;;;3.90;3.50;;;28.80;34.80;;;;;;5010152;28;19913;-78
2023/07/09 12:14:22;;;;;;;7.40;4.07;;;29.10;34.80;;;;;;5025374;28;20152;-77
2023/07/09 12:16:52;;;;;;;6.47;3.50;;;29.10;34.70;;;;;;5010239;28;20030;-79
2023/07/09 12:19:20;;;;;;;3.55;3.25;;;29.30;36.60;;;;;;5009015;28;20471;-79
2023/07/09 12:21:53;;;;;;;6.10;3.55;;;29.60;36.00;;;;;;5010180;28;20155;-79
2023/07/09 12:24:25;;;;;;;3.85;3.50;;;29.90;37.00;;;;;;5010348;28;20025;-79
2023/07/09 12:27:02;;;;;;;4.45;3.88;;;29.80;35.10;;;;;;5025375;28;20019;-79
2023/07/09 12:29:34;;;;;;;6.32;4.53;;;29.50;34.80;;;;;;5010131;28;20556;-79
2023/07/09 12:32:10;;;;;;;4.03;3.63;;;29.20;34.70;;;;;;5010284;28;20211;-79
2023/07/09 12:34:35;;;;;;;4.05;3.65;;;29.20;34.90;;;;;;5008928;28;20022;-76
2023/07/09 12:37:01;;;;;;;4.70;4.07;;;29.10;35.90;;;;;;5010019;28;20040;-79
2023/07/09 12:39:31;;;;;;;5.22;4.72;;;28.90;35.20;;;;;;5016357;28;20100;-77
2023/07/09 12:42:00;;;;;;;7.30;5.97;;;28.70;34.90;;;;;;5023524;28;20079;-77
2023/07/09 12:44:28;;;;;;;3.90;3.33;;;28.40;35.40;;;;;;5024494;28;20168;-78
2023/07/09 12:46:54;;;;;;;4.45;3.85;;;28.40;35.60;;;;;;5026509;28;20482;-77
2023/07/09 12:49:26;;;;;;;3.72;3.42;;;28.40;35.90;;;;;;5032365;28;20025;-77
2023/07/09 12:51:55;;;;;;;;;;;28.70;36.90;;;;;;5032779;28;20029;-77
2023/07/09 12:54:21;;;;;;;5.60;3.78;;;28.90;34.60;;;;;;5032822;28;19905;-80
2023/07/09 12:56:51;;;;;;;4.95;4.07;;;29.20;35.30;;;;;;5032760;28;20033;-77
2023/07/09 12:59:21;;;;;;;7.43;6.75;;;29.20;34.30;;;;;;5032810;28;20050;-78
2023/07/09 13:02:07;;;;;;;4.90;4.50;;;29.10;34.50;;;;;;5032634;28;20044;-78
2023/07/09 13:04:36;;;;;;;3.20;2.97;;;29.30;34.60;;;;;;5031483;28;20445;-78
2023/07/09 13:07:02;;;;;;;4.00;3.70;;;29.60;35.00;;;;;;5032604;28;20029;-78